createdAt,value
2016-11-10T00:00:40.867Z,0
2016-11-10T00:01:40.841Z,0
2016-11-10T00:02:40.951Z,0
2016-11-10T00:03:39.659Z,0
2016-11-10T00:04:39.551Z,0
2016-11-10T00:05:39.923Z,0
2016-11-10T00:06:39.953Z,0
2016-11-10T00:07:39.916Z,0
2016-11-10T00:08:39.916Z,0
2016-11-10T00:09:39.617Z,0
2016-11-10T00:10:39.241Z,0
2016-11-10T00:11:39.979Z,0
2016-11-10T00:12:39.995Z,0
2016-11-10T00:13:39.677Z,0
2016-11-10T00:14:39.729Z,0
2016-11-10T00:15:40.027Z,0
2016-11-10T00:16:39.829Z,0
2016-11-10T00:17:40.095Z,0
2016-11-10T00:18:39.867Z,0
2016-11-10T00:19:40.085Z,0
2016-11-10T00:20:40.086Z,0
2016-11-10T00:21:40.142Z,0
2016-11-10T00:22:39.807Z,0
2016-11-10T00:23:39.807Z,0
2016-11-10T00:24:40.143Z,0
2016-11-10T00:25:40.239Z,0
2016-11-10T00:26:39.859Z,0
2016-11-10T00:27:39.857Z,0
2016-11-10T00:28:39.886Z,0
2016-11-10T00:29:40.268Z,0
2016-11-10T00:30:40.245Z,0
2016-11-10T00:31:40.224Z,0
2016-11-10T00:32:40.318Z,0
2016-11-10T00:33:40.928Z,0
2016-11-10T00:34:39.986Z,0
2016-11-10T00:35:39.995Z,0
2016-11-10T00:36:40.317Z,0
2016-11-10T00:37:40.312Z,0
2016-11-10T00:38:40.352Z,0
2016-11-10T00:39:40.352Z,0
2016-11-10T00:40:40.376Z,0
2016-11-10T00:41:40.067Z,0
2016-11-10T00:42:40.452Z,0
2016-11-10T00:43:40.427Z,0
2016-11-10T00:44:40.515Z,0
2016-11-10T00:45:40.585Z,0
2016-11-10T00:46:40.147Z,0
2016-11-10T00:47:41.465Z,0
2016-11-10T00:48:40.097Z,0
2016-11-10T00:49:40.547Z,0
2016-11-10T00:50:40.505Z,0
2016-11-10T00:51:40.206Z,0
2016-11-10T00:52:40.546Z,0
2016-11-10T00:53:40.550Z,0
2016-11-10T00:54:40.257Z,0
2016-11-10T00:55:40.570Z,0
2016-11-10T00:56:40.502Z,0
2016-11-10T00:57:41.657Z,0
2016-11-10T00:58:41.593Z,0
2016-11-10T00:59:41.603Z,0
2016-11-10T01:00:40.325Z,0
2016-11-10T01:01:41.721Z,0
2016-11-10T01:02:40.674Z,0
2016-11-10T01:03:40.382Z,0
2016-11-10T01:04:40.409Z,0
2016-11-10T01:05:40.696Z,0
2016-11-10T01:06:40.726Z,0
2016-11-10T01:07:40.442Z,0
2016-11-10T01:08:40.755Z,0
2016-11-10T01:09:41.696Z,0
2016-11-10T01:10:41.763Z,0
2016-11-10T01:11:40.486Z,0
2016-11-10T01:12:41.481Z,0
2016-11-10T01:13:40.505Z,0
2016-11-10T01:14:40.937Z,0
2016-11-10T01:15:40.892Z,0
2016-11-10T01:16:40.968Z,0
2016-11-10T01:17:40.887Z,0
2016-11-10T01:18:40.955Z,0
2016-11-10T01:19:40.947Z,0
2016-11-10T01:20:40.926Z,0
2016-11-10T01:21:40.952Z,0
2016-11-10T01:22:40.982Z,0
2016-11-10T01:23:40.945Z,0
2016-11-10T01:24:40.676Z,0
2016-11-10T01:25:41.041Z,0
2016-11-10T01:26:41.025Z,0
2016-11-10T01:27:40.716Z,0
2016-11-10T01:28:42.015Z,0
2016-11-10T01:29:42.076Z,0
2016-11-10T01:30:40.816Z,0
2016-11-10T01:31:41.086Z,0
2016-11-10T01:32:40.784Z,0
2016-11-10T01:33:41.147Z,0
2016-11-10T01:34:40.933Z,0
2016-11-10T01:35:40.516Z,0
2016-11-10T01:36:41.157Z,0
2016-11-10T01:37:41.174Z,0
2016-11-10T01:38:41.169Z,0
2016-11-10T01:39:41.176Z,0
2016-11-10T01:40:41.347Z,0
2016-11-10T01:41:42.206Z,0
2016-11-10T01:42:41.315Z,0
2016-11-10T01:43:41.316Z,0
2016-11-10T01:44:41.374Z,0
2016-11-10T01:45:41.326Z,0
2016-11-10T01:46:41.966Z,0
2016-11-10T01:47:42.292Z,0
2016-11-10T01:48:41.326Z,0
2016-11-10T01:49:41.326Z,0
2016-11-10T01:50:41.357Z,0
2016-11-10T01:51:41.369Z,0
2016-11-10T01:52:41.161Z,0
2016-11-10T01:53:42.356Z,0
2016-11-10T01:54:41.119Z,0
2016-11-10T01:55:41.428Z,0
2016-11-10T01:56:41.127Z,0
2016-11-10T01:57:41.552Z,0
2016-11-10T01:58:42.431Z,0
2016-11-10T01:59:41.264Z,0
2016-11-10T02:00:42.472Z,0
2016-11-10T02:01:42.480Z,0
2016-11-10T02:02:41.571Z,0
2016-11-10T02:03:41.347Z,0
2016-11-10T02:04:41.288Z,0
2016-11-10T02:05:42.525Z,0
2016-11-10T02:06:42.235Z,0
2016-11-10T02:07:41.280Z,0
2016-11-10T02:08:41.607Z,0
2016-11-10T02:09:41.616Z,0
2016-11-10T02:10:41.346Z,0
2016-11-10T02:11:42.005Z,0
2016-11-10T02:12:41.454Z,0
2016-11-10T02:13:41.701Z,0
2016-11-10T02:14:42.668Z,0
2016-11-10T02:15:41.727Z,0
2016-11-10T02:16:42.754Z,0
2016-11-10T02:17:41.424Z,0
2016-11-10T02:18:42.713Z,0
2016-11-10T02:19:41.761Z,0
2016-11-10T02:20:41.779Z,0
2016-11-10T02:21:41.781Z,0
2016-11-10T02:22:41.819Z,0
2016-11-10T02:23:41.499Z,0
2016-11-10T02:24:42.557Z,0
2016-11-10T02:25:41.847Z,0
2016-11-10T02:26:42.956Z,0
2016-11-10T02:27:41.978Z,0
2016-11-10T02:28:41.725Z,0
2016-11-10T02:29:42.936Z,0
2016-11-10T02:30:41.403Z,0
2016-11-10T02:31:41.944Z,0
2016-11-10T02:32:41.656Z,0
2016-11-10T02:33:41.957Z,0
2016-11-10T02:34:41.664Z,0
2016-11-10T02:35:41.677Z,0
2016-11-10T02:36:42.958Z,0
2016-11-10T02:37:42.016Z,0
2016-11-10T02:38:42.034Z,0
2016-11-10T02:39:41.368Z,0
2016-11-10T02:40:42.112Z,0
2016-11-10T02:41:42.077Z,0
2016-11-10T02:42:42.123Z,0
2016-11-10T02:43:42.094Z,0
2016-11-10T02:44:41.816Z,0
2016-11-10T02:45:42.211Z,0
2016-11-10T02:46:42.157Z,0
2016-11-10T02:47:42.219Z,0
2016-11-10T02:48:42.205Z,0
2016-11-10T02:49:42.174Z,0
2016-11-10T02:50:42.204Z,0
2016-11-10T02:51:42.233Z,0
2016-11-10T02:52:42.209Z,0
2016-11-10T02:53:42.233Z,0
2016-11-10T02:54:42.254Z,0
2016-11-10T02:55:43.263Z,0
2016-11-10T02:56:42.304Z,0
2016-11-10T02:57:42.291Z,0
2016-11-10T02:58:42.303Z,0
2016-11-10T02:59:42.326Z,0
2016-11-10T03:00:42.465Z,0
2016-11-10T03:01:42.355Z,0
2016-11-10T03:02:42.465Z,0
2016-11-10T03:03:42.388Z,0
2016-11-10T03:04:42.389Z,0
2016-11-10T03:05:42.426Z,0
2016-11-10T03:06:42.425Z,0
2016-11-10T03:07:42.124Z,0
2016-11-10T03:08:42.444Z,0
2016-11-10T03:09:42.473Z,0
2016-11-10T03:10:43.582Z,0
2016-11-10T03:11:43.508Z,0
2016-11-10T03:12:42.565Z,0
2016-11-10T03:13:42.634Z,0
2016-11-10T03:14:42.545Z,0
2016-11-10T03:15:43.630Z,0
2016-11-10T03:16:42.571Z,0
2016-11-10T03:17:42.581Z,0
2016-11-10T03:18:42.584Z,0
2016-11-10T03:19:42.616Z,0
2016-11-10T03:20:43.589Z,0
2016-11-10T03:21:43.614Z,0
2016-11-10T03:22:43.317Z,0
2016-11-10T03:23:42.352Z,0
2016-11-10T03:24:43.340Z,0
2016-11-10T03:25:43.693Z,0
2016-11-10T03:26:42.710Z,0
2016-11-10T03:27:42.724Z,0
2016-11-10T03:28:42.774Z,0
2016-11-10T03:29:42.733Z,0
2016-11-10T03:30:43.734Z,0
2016-11-10T03:31:42.831Z,0
2016-11-10T03:32:43.605Z,0
2016-11-10T03:33:42.813Z,0
2016-11-10T03:34:42.534Z,0
2016-11-10T03:35:42.573Z,0
2016-11-10T03:36:42.230Z,0
2016-11-10T03:37:43.241Z,0
2016-11-10T03:38:42.890Z,0
2016-11-10T03:39:42.993Z,0
2016-11-10T03:40:43.949Z,0
2016-11-10T03:41:42.954Z,0
2016-11-10T03:42:42.971Z,0
2016-11-10T03:43:42.954Z,0
2016-11-10T03:44:42.258Z,0
2016-11-10T03:45:43.939Z,0
2016-11-10T03:46:43.964Z,0
2016-11-10T03:47:43.675Z,0
2016-11-10T03:48:43.010Z,0
2016-11-10T03:49:43.032Z,0
2016-11-10T03:50:43.024Z,0
2016-11-10T03:51:42.749Z,0
2016-11-10T03:52:43.104Z,0
2016-11-10T03:53:43.256Z,0
2016-11-10T03:54:42.828Z,0
2016-11-10T03:55:44.107Z,0
2016-11-10T03:56:42.504Z,0
2016-11-10T03:57:42.836Z,0
2016-11-10T03:58:43.195Z,0
2016-11-10T03:59:43.180Z,0
2016-11-10T04:00:42.594Z,0
2016-11-10T04:01:44.830Z,0
2016-11-10T04:02:42.915Z,0
2016-11-10T04:03:43.982Z,0
2016-11-10T04:04:43.255Z,0
2016-11-10T04:05:43.266Z,0
2016-11-10T04:06:43.257Z,0
2016-11-10T04:07:43.034Z,0
2016-11-10T04:08:42.980Z,0
2016-11-10T04:09:43.011Z,0
2016-11-10T04:10:43.115Z,0
2016-11-10T04:11:43.385Z,0
2016-11-10T04:12:43.466Z,0
2016-11-10T04:13:43.425Z,0
2016-11-10T04:14:44.045Z,0
2016-11-10T04:15:43.472Z,0
2016-11-10T04:16:43.408Z,0
2016-11-10T04:17:43.214Z,0
2016-11-10T04:18:43.440Z,0
2016-11-10T04:19:43.446Z,0
2016-11-10T04:20:43.163Z,0
2016-11-10T04:21:43.479Z,0
2016-11-10T04:22:43.606Z,0
2016-11-10T04:23:43.604Z,0
2016-11-10T04:24:43.316Z,0
2016-11-10T04:25:43.635Z,0
2016-11-10T04:26:43.607Z,0
2016-11-10T04:27:43.206Z,0
2016-11-10T04:28:43.699Z,0
2016-11-10T04:29:43.606Z,0
2016-11-10T04:30:44.271Z,0
2016-11-10T04:31:43.317Z,0
2016-11-10T04:32:44.298Z,0
2016-11-10T04:33:43.034Z,0
2016-11-10T04:34:43.663Z,0
2016-11-10T04:35:43.058Z,0
2016-11-10T04:36:43.698Z,0
2016-11-10T04:37:43.404Z,0
2016-11-10T04:38:44.382Z,0
2016-11-10T04:39:43.431Z,0
2016-11-10T04:40:43.514Z,0
2016-11-10T04:41:44.520Z,0
2016-11-10T04:42:43.847Z,0
2016-11-10T04:43:43.628Z,0
2016-11-10T04:44:43.112Z,0
2016-11-10T04:45:43.810Z,0
2016-11-10T04:46:43.505Z,0
2016-11-10T04:47:44.807Z,0
2016-11-10T04:48:43.866Z,0
2016-11-10T04:49:43.612Z,0
2016-11-10T04:50:44.854Z,0
2016-11-10T04:51:43.912Z,0
2016-11-10T04:52:45.004Z,0
2016-11-10T04:53:43.921Z,0
2016-11-10T04:54:44.014Z,0
2016-11-10T04:55:43.255Z,0
2016-11-10T04:56:43.086Z,0
2016-11-10T04:57:44.112Z,0
2016-11-10T04:58:43.841Z,0
2016-11-10T04:59:44.016Z,0
2016-11-10T05:00:44.022Z,0
2016-11-10T05:01:43.427Z,0
2016-11-10T05:02:43.737Z,0
2016-11-10T05:03:44.059Z,0
2016-11-10T05:04:43.775Z,0
2016-11-10T05:05:45.066Z,0
2016-11-10T05:06:44.113Z,0
2016-11-10T05:07:43.833Z,0
2016-11-10T05:08:43.834Z,0
2016-11-10T05:09:43.870Z,0
2016-11-10T05:10:44.163Z,0
2016-11-10T05:11:44.233Z,0
2016-11-10T05:12:44.864Z,0
2016-11-10T05:13:44.256Z,0
2016-11-10T05:14:43.909Z,0
2016-11-10T05:15:44.938Z,0
2016-11-10T05:16:44.245Z,0
2016-11-10T05:17:43.958Z,0
2016-11-10T05:18:44.265Z,0
2016-11-10T05:19:45.107Z,0
2016-11-10T05:20:43.935Z,0
2016-11-10T05:21:44.248Z,0
2016-11-10T05:22:44.279Z,0
2016-11-10T05:23:44.298Z,0
2016-11-10T05:24:43.983Z,0
2016-11-10T05:25:44.296Z,0
2016-11-10T05:26:43.983Z,0
2016-11-10T05:27:44.619Z,0
2016-11-10T05:28:44.624Z,0
2016-11-10T05:29:44.328Z,0
2016-11-10T05:30:45.477Z,0
2016-11-10T05:31:44.308Z,0
2016-11-10T05:32:44.635Z,0
2016-11-10T05:33:45.449Z,0
2016-11-10T05:34:44.653Z,0
2016-11-10T05:35:44.699Z,0
2016-11-10T05:36:44.691Z,0
2016-11-10T05:37:44.382Z,0
2016-11-10T05:38:44.405Z,0
2016-11-10T05:39:45.639Z,0
2016-11-10T05:40:44.697Z,0
2016-11-10T05:41:44.428Z,0
2016-11-10T05:42:45.598Z,0
2016-11-10T05:43:44.420Z,0
2016-11-10T05:44:44.395Z,0
2016-11-10T05:45:44.729Z,0
2016-11-10T05:46:44.734Z,0
2016-11-10T05:47:44.310Z,0
2016-11-10T05:48:44.747Z,0
2016-11-10T05:49:45.631Z,0
2016-11-10T05:50:44.054Z,0
2016-11-10T05:51:45.518Z,0
2016-11-10T05:52:45.749Z,0
2016-11-10T05:53:44.883Z,0
2016-11-10T05:54:44.463Z,0
2016-11-10T05:55:44.815Z,0
2016-11-10T05:56:44.832Z,0
2016-11-10T05:57:45.806Z,48
2016-11-10T05:58:44.847Z,44
2016-11-10T05:59:45.838Z,40
2016-11-10T06:00:44.578Z,40
2016-11-10T06:01:44.886Z,0
2016-11-10T06:02:44.594Z,0
2016-11-10T06:03:45.571Z,0
2016-11-10T06:04:44.931Z,0
2016-11-10T06:05:44.955Z,0
2016-11-10T06:06:44.662Z,0
2016-11-10T06:07:44.969Z,0
2016-11-10T06:08:44.387Z,0
2016-11-10T06:09:45.030Z,0
2016-11-10T06:10:45.013Z,0
2016-11-10T06:11:45.032Z,0
2016-11-10T06:12:46.077Z,0
2016-11-10T06:13:45.119Z,0
2016-11-10T06:14:45.067Z,4
2016-11-10T06:15:45.760Z,4
2016-11-10T06:16:45.093Z,4
2016-11-10T06:17:44.547Z,0
2016-11-10T06:18:44.864Z,4
2016-11-10T06:19:44.824Z,4
2016-11-10T06:20:45.807Z,4
2016-11-10T06:21:45.296Z,4
2016-11-10T06:22:44.886Z,4
2016-11-10T06:23:45.210Z,8
2016-11-10T06:24:44.909Z,8
2016-11-10T06:25:44.926Z,8
2016-11-10T06:26:45.249Z,8
2016-11-10T06:27:44.958Z,8
2016-11-10T06:28:45.286Z,12
2016-11-10T06:29:45.288Z,16
2016-11-10T06:30:45.289Z,16
2016-11-10T06:31:45.308Z,20
2016-11-10T06:32:45.346Z,24
2016-11-10T06:33:45.201Z,24
2016-11-10T06:34:45.378Z,32
2016-11-10T06:35:45.363Z,32
2016-11-10T06:36:45.078Z,32
2016-11-10T06:37:45.468Z,40
2016-11-10T06:38:45.512Z,40
2016-11-10T06:39:45.418Z,44
2016-11-10T06:40:45.448Z,48
2016-11-10T06:41:45.507Z,56
2016-11-10T06:42:45.509Z,56
2016-11-10T06:43:45.487Z,64
2016-11-10T06:44:45.487Z,72
2016-11-10T06:45:45.333Z,80
2016-11-10T06:46:45.517Z,80
2016-11-10T06:47:45.519Z,88
2016-11-10T06:48:45.565Z,96
2016-11-10T06:49:45.564Z,108
2016-11-10T06:50:45.675Z,112
2016-11-10T06:51:45.616Z,116
2016-11-10T06:52:45.599Z,116
2016-11-10T06:53:45.668Z,120
2016-11-10T06:54:45.637Z,128
2016-11-10T06:55:45.649Z,128
2016-11-10T06:56:46.321Z,132
2016-11-10T06:57:45.684Z,144
2016-11-10T06:58:45.696Z,152
2016-11-10T06:59:45.430Z,156
2016-11-10T07:00:45.564Z,164
2016-11-10T07:01:45.746Z,176
2016-11-10T07:02:45.734Z,188
2016-11-10T07:03:45.757Z,192
2016-11-10T07:04:45.437Z,196
2016-11-10T07:05:46.765Z,212
2016-11-10T07:06:45.869Z,220
2016-11-10T07:07:45.504Z,236
2016-11-10T07:08:46.485Z,244
2016-11-10T07:09:45.572Z,280
2016-11-10T07:10:45.597Z,296
2016-11-10T07:11:46.887Z,300
2016-11-10T07:12:45.906Z,316
2016-11-10T07:13:45.687Z,356
2016-11-10T07:14:45.957Z,384
2016-11-10T07:15:46.596Z,408
2016-11-10T07:16:45.938Z,448
2016-11-10T07:17:45.631Z,488
2016-11-10T07:18:46.687Z,496
2016-11-10T07:19:45.448Z,496
2016-11-10T07:20:45.677Z,504
2016-11-10T07:21:46.086Z,524
2016-11-10T07:22:46.012Z,556
2016-11-10T07:23:46.062Z,552
2016-11-10T07:24:45.762Z,564
2016-11-10T07:25:45.880Z,604
2016-11-10T07:26:46.531Z,636
2016-11-10T07:27:46.090Z,684
2016-11-10T07:28:47.084Z,740
2016-11-10T07:29:45.805Z,764
2016-11-10T07:30:46.117Z,800
2016-11-10T07:31:46.155Z,832
2016-11-10T07:32:47.138Z,832
2016-11-10T07:33:46.838Z,800
2016-11-10T07:34:45.868Z,852
2016-11-10T07:35:46.196Z,860
2016-11-10T07:36:46.216Z,820
2016-11-10T07:37:46.041Z,796
2016-11-10T07:38:45.946Z,804
2016-11-10T07:39:47.266Z,748
2016-11-10T07:40:46.268Z,740
2016-11-10T07:41:46.341Z,732
2016-11-10T07:42:47.276Z,740
2016-11-10T07:43:47.287Z,720
2016-11-10T07:44:46.010Z,688
2016-11-10T07:45:46.055Z,704
2016-11-10T07:46:46.346Z,720
2016-11-10T07:47:47.345Z,772
2016-11-10T07:48:46.112Z,808
2016-11-10T07:49:47.485Z,840
2016-11-10T07:50:46.108Z,860
2016-11-10T07:51:46.116Z,924
2016-11-10T07:52:46.588Z,1016
2016-11-10T07:53:46.145Z,1088
2016-11-10T07:54:47.566Z,1156
2016-11-10T07:55:46.180Z,1204
2016-11-10T07:56:47.195Z,1252
2016-11-10T07:57:45.909Z,1268
2016-11-10T07:58:46.205Z,1272
2016-11-10T07:59:47.218Z,1304
2016-11-10T08:00:47.535Z,1364
2016-11-10T08:01:46.578Z,1408
2016-11-10T08:02:47.259Z,1388
2016-11-10T08:03:47.579Z,1416
2016-11-10T08:04:46.631Z,1472
2016-11-10T08:05:47.455Z,1508
2016-11-10T08:06:47.640Z,1496
2016-11-10T08:07:47.796Z,1472
2016-11-10T08:08:46.735Z,1524
2016-11-10T08:09:46.805Z,1592
2016-11-10T08:10:46.713Z,1552
2016-11-10T08:11:46.711Z,1564
2016-11-10T08:12:46.735Z,1660
2016-11-10T08:13:46.447Z,1840
2016-11-10T08:14:46.787Z,2004
2016-11-10T08:15:46.764Z,2020
2016-11-10T08:16:46.925Z,1876
2016-11-10T08:17:47.872Z,1828
2016-11-10T08:18:47.796Z,1812
2016-11-10T08:19:46.522Z,1780
2016-11-10T08:20:46.218Z,1688
2016-11-10T08:21:47.906Z,1628
2016-11-10T08:22:46.878Z,1560
2016-11-10T08:23:46.967Z,1496
2016-11-10T08:24:46.922Z,1540
2016-11-10T08:25:47.893Z,1624
2016-11-10T08:26:47.637Z,1748
2016-11-10T08:27:46.644Z,1872
2016-11-10T08:28:46.964Z,1988
2016-11-10T08:29:46.674Z,1976
2016-11-10T08:30:47.001Z,1864
2016-11-10T08:31:47.065Z,1760
2016-11-10T08:32:47.028Z,1876
2016-11-10T08:33:47.179Z,1880
2016-11-10T08:34:48.026Z,1860
2016-11-10T08:35:46.775Z,1752
2016-11-10T08:36:47.754Z,1624
2016-11-10T08:37:48.064Z,1732
2016-11-10T08:38:46.785Z,1784
2016-11-10T08:39:47.133Z,1788
2016-11-10T08:40:48.110Z,1704
2016-11-10T08:41:46.995Z,1692
2016-11-10T08:42:47.216Z,1672
2016-11-10T08:43:46.875Z,1668
2016-11-10T08:44:46.885Z,1652
2016-11-10T08:45:46.901Z,1644
2016-11-10T08:46:46.842Z,1576
2016-11-10T08:47:47.245Z,1508
2016-11-10T08:48:47.323Z,1472
2016-11-10T08:49:47.376Z,1444
2016-11-10T08:50:47.406Z,1424
2016-11-10T08:51:47.357Z,1476
2016-11-10T08:52:47.401Z,1544
2016-11-10T08:53:47.376Z,1556
2016-11-10T08:54:47.395Z,1540
2016-11-10T08:55:47.367Z,1548
2016-11-10T08:56:48.334Z,1604
2016-11-10T08:57:48.358Z,1656
2016-11-10T08:58:47.411Z,1628
2016-11-10T08:59:47.415Z,1608
2016-11-10T09:00:47.444Z,1672
2016-11-10T09:01:47.206Z,1740
2016-11-10T09:02:47.605Z,1740
2016-11-10T09:03:46.858Z,1740
2016-11-10T09:04:48.480Z,1776
2016-11-10T09:05:47.571Z,1828
2016-11-10T09:06:47.248Z,1988
2016-11-10T09:07:48.205Z,2072
2016-11-10T09:08:47.569Z,2112
2016-11-10T09:09:48.533Z,2120
2016-11-10T09:10:46.987Z,2092
2016-11-10T09:11:47.294Z,2048
2016-11-10T09:12:48.571Z,2040
2016-11-10T09:13:47.630Z,1976
2016-11-10T09:14:47.704Z,1936
2016-11-10T09:15:48.607Z,1860
2016-11-10T09:16:47.675Z,1840
2016-11-10T09:17:47.795Z,2032
2016-11-10T09:18:48.445Z,2344
2016-11-10T09:19:47.798Z,2424
2016-11-10T09:20:47.724Z,2432
2016-11-10T09:21:47.743Z,2396
2016-11-10T09:22:47.764Z,2376
2016-11-10T09:23:47.136Z,2296
2016-11-10T09:24:47.809Z,2240
2016-11-10T09:25:47.826Z,2172
2016-11-10T09:26:47.827Z,2160
2016-11-10T09:27:47.505Z,2140
2016-11-10T09:28:47.868Z,2152
2016-11-10T09:29:47.856Z,2064
2016-11-10T09:30:48.524Z,2040
2016-11-10T09:31:47.519Z,2000
2016-11-10T09:32:47.895Z,1952
2016-11-10T09:33:48.720Z,1896
2016-11-10T09:34:47.924Z,1920
2016-11-10T09:35:47.665Z,1964
2016-11-10T09:36:47.648Z,2148
2016-11-10T09:37:48.643Z,2412
2016-11-10T09:38:47.695Z,2712
2016-11-10T09:39:47.626Z,2848
2016-11-10T09:40:48.029Z,2864
2016-11-10T09:41:48.033Z,3036
2016-11-10T09:42:48.819Z,2992
2016-11-10T09:43:47.826Z,2976
2016-11-10T09:44:47.763Z,3076
2016-11-10T09:45:48.079Z,3096
2016-11-10T09:46:48.104Z,3156
2016-11-10T09:47:47.811Z,3216
2016-11-10T09:48:48.274Z,3364
2016-11-10T09:49:49.215Z,3436
2016-11-10T09:50:48.221Z,3376
2016-11-10T09:51:48.285Z,3228
2016-11-10T09:52:48.181Z,2956
2016-11-10T09:53:48.214Z,2820
2016-11-10T09:54:47.920Z,2804
2016-11-10T09:55:48.245Z,2824
2016-11-10T09:56:47.974Z,2808
2016-11-10T09:57:47.943Z,2860
2016-11-10T09:58:48.296Z,2816
2016-11-10T09:59:48.310Z,2580
2016-11-10T10:00:48.294Z,2332
2016-11-10T10:01:48.494Z,2240
2016-11-10T10:02:47.345Z,2276
2016-11-10T10:03:48.374Z,2280
2016-11-10T10:04:48.065Z,2276
2016-11-10T10:05:48.414Z,2296
2016-11-10T10:06:49.417Z,2380
2016-11-10T10:07:48.753Z,2408
2016-11-10T10:08:49.435Z,2408
2016-11-10T10:09:48.395Z,2352
2016-11-10T10:10:48.721Z,2356
2016-11-10T10:11:48.813Z,2380
2016-11-10T10:12:48.231Z,2352
2016-11-10T10:13:48.395Z,2292
2016-11-10T10:14:48.929Z,2240
2016-11-10T10:15:48.748Z,2236
2016-11-10T10:16:50.028Z,2244
2016-11-10T10:17:49.742Z,2284
2016-11-10T10:18:48.636Z,2380
2016-11-10T10:19:48.465Z,2472
2016-11-10T10:20:48.604Z,2524
2016-11-10T10:21:49.815Z,2664
2016-11-10T10:22:49.061Z,2720
2016-11-10T10:23:48.550Z,2608
2016-11-10T10:24:48.604Z,2492
2016-11-10T10:25:48.840Z,2492
2016-11-10T10:26:48.591Z,2568
2016-11-10T10:27:49.181Z,2436
2016-11-10T10:28:48.223Z,2356
2016-11-10T10:29:48.511Z,2400
2016-11-10T10:30:48.448Z,2432
2016-11-10T10:31:48.874Z,2364
2016-11-10T10:32:48.834Z,2256
2016-11-10T10:33:48.230Z,2204
2016-11-10T10:34:48.516Z,2100
2016-11-10T10:35:48.434Z,1916
2016-11-10T10:36:48.909Z,1828
2016-11-10T10:37:49.673Z,1868
2016-11-10T10:38:49.868Z,1888
2016-11-10T10:39:48.800Z,1852
2016-11-10T10:40:48.919Z,1964
2016-11-10T10:41:49.212Z,2104
2016-11-10T10:42:48.738Z,2212
2016-11-10T10:43:49.128Z,2348
2016-11-10T10:44:49.091Z,2484
2016-11-10T10:45:49.977Z,2612
2016-11-10T10:46:49.020Z,2664
2016-11-10T10:47:48.710Z,2672
2016-11-10T10:48:48.734Z,2580
2016-11-10T10:49:49.047Z,2488
2016-11-10T10:50:49.078Z,2432
2016-11-10T10:51:49.086Z,2392
2016-11-10T10:52:48.542Z,2444
2016-11-10T10:53:48.489Z,2568
2016-11-10T10:54:48.803Z,2644
2016-11-10T10:55:48.879Z,2604
2016-11-10T10:56:49.164Z,2584
2016-11-10T10:57:48.940Z,2652
2016-11-10T10:58:49.871Z,2744
2016-11-10T10:59:48.585Z,2632
2016-11-10T11:00:48.604Z,2412
2016-11-10T11:01:48.985Z,2428
2016-11-10T11:02:50.225Z,2572
2016-11-10T11:03:50.254Z,2696
2016-11-10T11:04:49.947Z,2796
2016-11-10T11:05:48.994Z,2932
2016-11-10T11:06:48.991Z,3120
2016-11-10T11:07:49.313Z,3236
2016-11-10T11:08:49.042Z,3136
2016-11-10T11:09:49.395Z,2680
2016-11-10T11:10:49.177Z,2244
2016-11-10T11:11:49.523Z,2092
2016-11-10T11:12:49.461Z,2044
2016-11-10T11:13:49.461Z,2068
2016-11-10T11:14:49.562Z,2128
2016-11-10T11:15:49.269Z,2288
2016-11-10T11:16:49.165Z,2380
2016-11-10T11:17:49.208Z,2504
2016-11-10T11:18:50.474Z,2556
2016-11-10T11:19:49.533Z,2540
2016-11-10T11:20:49.533Z,2520
2016-11-10T11:21:50.520Z,2480
2016-11-10T11:22:48.984Z,2424
2016-11-10T11:23:48.944Z,2472
2016-11-10T11:24:50.250Z,2508
2016-11-10T11:25:49.623Z,2492
2016-11-10T11:26:49.622Z,2472
2016-11-10T11:27:49.633Z,2512
2016-11-10T11:28:49.344Z,2604
2016-11-10T11:29:50.018Z,2728
2016-11-10T11:30:49.410Z,2768
2016-11-10T11:31:49.730Z,3068
2016-11-10T11:32:49.464Z,3428
2016-11-10T11:33:50.693Z,3516
2016-11-10T11:34:49.764Z,3496
2016-11-10T11:35:49.745Z,3572
2016-11-10T11:36:49.783Z,3532
2016-11-10T11:37:49.782Z,3428
2016-11-10T11:38:49.797Z,3468
2016-11-10T11:39:49.954Z,3520
2016-11-10T11:40:49.500Z,3480
2016-11-10T11:41:49.549Z,3436
2016-11-10T11:42:50.559Z,3340
2016-11-10T11:43:49.956Z,3248
2016-11-10T11:44:49.974Z,3268
2016-11-10T11:45:49.960Z,3236
2016-11-10T11:46:49.623Z,3008
2016-11-10T11:47:49.955Z,2776
2016-11-10T11:48:49.648Z,2596
2016-11-10T11:49:50.695Z,2588
2016-11-10T11:50:49.992Z,2708
2016-11-10T11:51:50.021Z,2860
2016-11-10T11:52:49.849Z,2792
2016-11-10T11:53:50.055Z,2804
2016-11-10T11:54:50.104Z,2776
2016-11-10T11:55:50.235Z,2664
2016-11-10T11:56:50.107Z,2572
2016-11-10T11:57:50.166Z,2544
2016-11-10T11:58:50.136Z,2512
2016-11-10T11:59:50.185Z,2524
2016-11-10T12:00:50.186Z,2444
2016-11-10T12:01:50.166Z,2264
2016-11-10T12:02:51.152Z,2096
2016-11-10T12:03:50.193Z,2024
2016-11-10T12:04:50.214Z,2028
2016-11-10T12:05:50.219Z,2048
2016-11-10T12:06:49.947Z,2064
2016-11-10T12:07:51.326Z,2116
2016-11-10T12:08:50.304Z,2160
2016-11-10T12:09:50.656Z,2168
2016-11-10T12:10:51.063Z,2172
2016-11-10T12:11:50.321Z,2128
2016-11-10T12:12:50.382Z,2024
2016-11-10T12:13:50.407Z,1920
2016-11-10T12:14:50.373Z,1944
2016-11-10T12:15:50.069Z,2088
2016-11-10T12:16:50.407Z,2176
2016-11-10T12:17:50.426Z,2180
2016-11-10T12:18:51.405Z,2056
2016-11-10T12:19:50.156Z,1864
2016-11-10T12:20:50.448Z,1740
2016-11-10T12:21:50.490Z,1640
2016-11-10T12:22:51.579Z,1572
2016-11-10T12:23:51.545Z,1532
2016-11-10T12:24:50.216Z,1552
2016-11-10T12:25:50.258Z,1592
2016-11-10T12:26:50.554Z,1660
2016-11-10T12:27:50.673Z,1728
2016-11-10T12:28:50.624Z,1760
2016-11-10T12:29:50.613Z,1752
2016-11-10T12:30:50.621Z,1676
2016-11-10T12:31:50.322Z,1560
2016-11-10T12:32:51.633Z,1436
2016-11-10T12:33:50.663Z,1368
2016-11-10T12:34:50.376Z,1428
2016-11-10T12:35:50.707Z,1644
2016-11-10T12:36:50.404Z,1880
2016-11-10T12:37:50.433Z,2016
2016-11-10T12:38:50.243Z,2144
2016-11-10T12:39:50.466Z,2208
2016-11-10T12:40:50.779Z,2136
2016-11-10T12:41:51.466Z,2008
2016-11-10T12:42:50.883Z,1956
2016-11-10T12:43:50.216Z,1932
2016-11-10T12:44:50.538Z,1868
2016-11-10T12:45:51.815Z,1780
2016-11-10T12:46:50.896Z,1704
2016-11-10T12:47:50.907Z,1624
2016-11-10T12:48:50.885Z,1556
2016-11-10T12:49:50.928Z,1544
2016-11-10T12:50:50.636Z,1588
2016-11-10T12:51:51.609Z,1668
2016-11-10T12:52:51.039Z,1736
2016-11-10T12:53:52.213Z,1756
2016-11-10T12:54:51.015Z,1732
2016-11-10T12:55:51.024Z,1696
2016-11-10T12:56:50.746Z,1688
2016-11-10T12:57:50.773Z,1724
2016-11-10T12:58:51.082Z,1792
2016-11-10T12:59:52.268Z,1860
2016-11-10T13:00:51.094Z,1912
2016-11-10T13:01:50.742Z,1944
2016-11-10T13:02:51.154Z,1916
2016-11-10T13:03:51.155Z,1940
2016-11-10T13:04:52.334Z,2096
2016-11-10T13:05:52.308Z,2296
2016-11-10T13:06:51.183Z,2536
2016-11-10T13:07:50.961Z,2528
2016-11-10T13:08:51.230Z,2336
2016-11-10T13:09:51.230Z,2060
2016-11-10T13:10:52.349Z,1896
2016-11-10T13:11:50.869Z,1900
2016-11-10T13:12:50.976Z,2104
2016-11-10T13:13:51.027Z,2416
2016-11-10T13:14:51.976Z,2688
2016-11-10T13:15:52.353Z,2700
2016-11-10T13:16:51.514Z,2528
2016-11-10T13:17:51.379Z,2152
2016-11-10T13:18:51.460Z,1776
2016-11-10T13:19:51.395Z,1496
2016-11-10T13:20:51.106Z,1340
2016-11-10T13:21:52.407Z,1280
2016-11-10T13:22:51.136Z,1340
2016-11-10T13:23:51.477Z,1400
2016-11-10T13:24:51.469Z,1440
2016-11-10T13:25:51.491Z,1452
2016-11-10T13:26:52.459Z,1424
2016-11-10T13:27:51.527Z,1312
2016-11-10T13:28:52.517Z,1220
2016-11-10T13:29:51.563Z,1148
2016-11-10T13:30:51.340Z,1108
2016-11-10T13:31:50.965Z,1140
2016-11-10T13:32:52.555Z,1192
2016-11-10T13:33:51.327Z,1224
2016-11-10T13:34:51.314Z,1204
2016-11-10T13:35:51.375Z,1236
2016-11-10T13:36:52.645Z,1324
2016-11-10T13:37:52.688Z,1372
2016-11-10T13:38:52.672Z,1368
2016-11-10T13:39:52.679Z,1376
2016-11-10T13:40:51.717Z,1452
2016-11-10T13:41:52.696Z,1524
2016-11-10T13:42:51.760Z,1608
2016-11-10T13:43:51.754Z,1676
2016-11-10T13:44:51.914Z,1676
2016-11-10T13:45:51.496Z,1588
2016-11-10T13:46:51.887Z,1548
2016-11-10T13:47:51.625Z,1504
2016-11-10T13:48:51.605Z,1436
2016-11-10T13:49:51.892Z,1380
2016-11-10T13:50:52.577Z,1368
2016-11-10T13:51:51.884Z,1444
2016-11-10T13:52:51.899Z,1536
2016-11-10T13:53:51.942Z,1704
2016-11-10T13:54:51.983Z,1952
2016-11-10T13:55:51.968Z,2232
2016-11-10T13:56:52.942Z,2524
2016-11-10T13:57:51.985Z,2684
2016-11-10T13:58:51.979Z,2596
2016-11-10T13:59:52.115Z,2380
2016-11-10T14:00:52.034Z,2256